createdAt,value
2018-07-09T00:01:06.821Z,55.40
2018-07-09T00:03:34.692Z,55.00
2018-07-09T00:06:02.511Z,54.90
2018-07-09T00:08:30.374Z,55.40
2018-07-09T00:11:01.757Z,55.40
2018-07-09T00:13:32.049Z,56.40
2018-07-09T00:16:00.093Z,56.60
2018-07-09T00:18:28.077Z,57.00
2018-07-09T00:20:55.981Z,56.80
2018-07-09T00:23:23.945Z,57.30
2018-07-09T00:25:52.507Z,58.00
2018-07-09T00:28:21.126Z,58.20
2018-07-09T00:30:49.080Z,58.30
2018-07-09T00:33:17.584Z,57.10
2018-07-09T00:35:45.971Z,58.50
2018-07-09T00:38:13.905Z,58.00
2018-07-09T00:40:42.911Z,57.80
2018-07-09T00:43:10.896Z,58.70
2018-07-09T00:45:41.008Z,58.00
2018-07-09T00:48:10.669Z,58.50
2018-07-09T00:50:42.169Z,57.70
2018-07-09T00:53:10.304Z,59.10
2018-07-09T00:55:38.331Z,57.70
2018-07-09T00:58:06.648Z,59.10
2018-07-09T01:00:34.529Z,59.00
2018-07-09T01:03:02.387Z,58.40
2018-07-09T01:05:30.364Z,58.80
2018-07-09T01:07:58.288Z,58.80
2018-07-09T01:10:26.278Z,58.80
2018-07-09T01:12:54.489Z,58.40
2018-07-09T01:17:50.281Z,58.70
2018-07-09T01:20:18.356Z,59.20
2018-07-09T01:22:46.242Z,59.20
2018-07-09T01:25:14.089Z,58.90
2018-07-09T01:27:42.361Z,58.50
2018-07-09T01:32:40.664Z,58.50
2018-07-09T01:37:38.283Z,59.20
2018-07-09T01:40:06.774Z,59.40
2018-07-09T01:42:35.844Z,58.70
2018-07-09T01:45:03.827Z,59.30
2018-07-09T01:47:31.730Z,59.30
2018-07-09T01:49:59.861Z,59.60
2018-07-09T01:52:28.127Z,59.40
2018-07-09T01:54:56.614Z,59.50
2018-07-09T01:57:24.505Z,59.70
2018-07-09T01:59:52.717Z,58.90
2018-07-09T02:02:20.653Z,59.50
2018-07-09T02:04:48.500Z,60.00
2018-07-09T02:07:16.374Z,59.40
2018-07-09T02:09:44.318Z,59.70
2018-07-09T02:12:12.157Z,60.00
2018-07-09T02:14:42.714Z,60.10
2018-07-09T02:17:10.645Z,60.00
2018-07-09T02:19:38.977Z,59.50
2018-07-09T02:22:06.949Z,60.90
2018-07-09T02:24:34.812Z,59.90
2018-07-09T02:27:02.805Z,60.00
2018-07-09T02:29:30.708Z,60.10
2018-07-09T02:31:58.617Z,60.30
2018-07-09T02:34:26.569Z,61.00
2018-07-09T02:39:22.293Z,61.00
2018-07-09T02:41:51.104Z,60.20
2018-07-09T02:44:18.999Z,62.70
2018-07-09T02:46:46.871Z,61.50
2018-07-09T02:49:14.929Z,61.90
2018-07-09T02:51:42.829Z,61.20
2018-07-09T02:54:10.772Z,61.00
2018-07-09T03:01:34.315Z,62.50
2018-07-09T03:04:02.289Z,62.30
2018-07-09T03:06:30.122Z,63.20
2018-07-09T03:08:58.018Z,62.00
2018-07-09T03:11:25.868Z,62.70
2018-07-09T03:13:53.854Z,63.70
2018-07-09T03:16:21.824Z,62.60
2018-07-09T03:18:49.711Z,62.90
2018-07-09T03:21:17.530Z,63.80
2018-07-09T03:23:45.489Z,63.80
2018-07-09T03:26:13.417Z,64.20
2018-07-09T03:28:41.406Z,63.40
2018-07-09T03:31:09.332Z,63.50
2018-07-09T03:33:37.197Z,64.80
2018-07-09T03:36:05.169Z,62.80
2018-07-09T03:38:33.057Z,63.60
2018-07-09T03:41:01.073Z,65.00
2018-07-09T03:43:28.999Z,64.50
2018-07-09T03:45:56.933Z,64.50
2018-07-09T03:48:24.800Z,64.70
2018-07-09T03:50:52.701Z,64.70
2018-07-09T03:53:20.535Z,64.70
2018-07-09T03:55:48.411Z,65.20
2018-07-09T03:58:16.317Z,64.70
2018-07-09T04:00:44.721Z,65.60
2018-07-09T04:03:12.716Z,65.40
2018-07-09T04:08:09.610Z,64.60
2018-07-09T04:10:37.584Z,64.40
2018-07-09T04:13:05.394Z,64.60
2018-07-09T04:15:33.253Z,64.60
2018-07-09T04:18:01.205Z,64.90
2018-07-09T04:20:29.030Z,64.80
2018-07-09T04:22:56.909Z,64.80
2018-07-09T04:25:24.807Z,65.60
2018-07-09T04:27:52.694Z,65.90
2018-07-09T04:30:20.529Z,66.10
2018-07-09T04:32:48.449Z,65.90
2018-07-09T04:35:16.403Z,65.20
2018-07-09T04:37:44.468Z,65.90
2018-07-09T04:40:12.300Z,66.80
2018-07-09T04:42:40.205Z,65.20
2018-07-09T04:45:08.292Z,66.40
2018-07-09T04:47:36.220Z,66.10
2018-07-09T04:50:05.174Z,65.50
2018-07-09T04:52:33.119Z,65.70
2018-07-09T04:55:01.029Z,65.20
2018-07-09T04:57:28.981Z,65.50
2018-07-09T04:59:56.893Z,64.50
2018-07-09T05:02:24.778Z,63.80
2018-07-09T05:04:52.717Z,60.90
2018-07-09T05:07:20.617Z,57.90
2018-07-09T05:09:48.440Z,55.80
2018-07-09T05:12:16.369Z,53.50
2018-07-09T05:14:44.325Z,50.90
2018-07-09T05:17:13.689Z,49.10
2018-07-09T05:19:41.626Z,48.20
2018-07-09T05:22:09.541Z,47.70
2018-07-09T05:24:37.454Z,47.80
2018-07-09T05:27:06.468Z,46.30
2018-07-09T05:29:35.391Z,44.90
2018-07-09T05:34:31.430Z,45.30
2018-07-09T05:36:59.322Z,44.30
2018-07-09T05:39:27.205Z,45.70
2018-07-09T05:44:23.576Z,45.20
2018-07-09T05:46:52.449Z,44.40
2018-07-09T05:49:21.041Z,45.10
2018-07-09T05:51:48.913Z,45.90
2018-07-09T05:54:17.010Z,46.00
2018-07-09T05:56:45.395Z,45.00
2018-07-09T05:59:13.297Z,44.90
2018-07-09T06:01:41.223Z,45.90
2018-07-09T06:04:09.225Z,46.00
2018-07-09T06:06:37.609Z,44.90
2018-07-09T06:09:08.041Z,44.80
2018-07-09T06:11:36.412Z,46.20
2018-07-09T06:14:04.590Z,45.50
2018-07-09T06:16:33.260Z,47.70
2018-07-09T06:19:01.170Z,48.20
2018-07-09T06:21:29.113Z,49.00
2018-07-09T06:23:57.217Z,48.10
2018-07-09T06:26:25.279Z,47.00
2018-07-09T06:28:53.365Z,46.80
2018-07-09T06:31:21.288Z,46.10
2018-07-09T06:33:49.330Z,47.00
2018-07-09T06:36:17.736Z,46.70
2018-07-09T06:38:46.225Z,45.60
2018-07-09T06:41:14.254Z,44.50
2018-07-09T06:43:42.334Z,45.60
2018-07-09T06:46:11.115Z,46.10
2018-07-09T06:48:39.053Z,46.50
2018-07-09T06:51:07.829Z,46.30
2018-07-09T06:53:36.854Z,47.60
2018-07-09T06:56:05.681Z,47.40
2018-07-09T06:58:34.031Z,47.00
2018-07-09T07:01:01.993Z,45.90
2018-07-09T07:03:30.021Z,43.80
2018-07-09T07:05:57.939Z,45.50
2018-07-09T07:08:25.793Z,47.30
2018-07-09T07:10:54.665Z,48.10
2018-07-09T07:13:23.281Z,47.20
2018-07-09T07:15:51.245Z,46.90
2018-07-09T07:18:19.135Z,47.20
2018-07-09T07:20:47.057Z,47.50
2018-07-09T07:23:14.963Z,49.40
2018-07-09T07:25:42.929Z,49.10
2018-07-09T07:28:11.088Z,48.90
2018-07-09T07:30:39.725Z,48.80
2018-07-09T07:33:08.150Z,48.50
2018-07-09T07:35:36.180Z,49.10
2018-07-09T07:38:04.169Z,48.80
2018-07-09T07:40:32.846Z,49.00
2018-07-09T07:43:01.378Z,50.00
2018-07-09T07:45:29.240Z,50.70
2018-07-09T07:50:25.211Z,49.80
2018-07-09T07:52:52.957Z,49.70
2018-07-09T07:55:20.782Z,49.20
2018-07-09T07:57:48.717Z,49.10
2018-07-09T08:00:16.821Z,49.90
2018-07-09T08:02:44.880Z,50.40
2018-07-09T08:05:12.822Z,50.60
2018-07-09T08:07:41.242Z,50.30
2018-07-09T08:10:09.309Z,50.30
2018-07-09T08:15:05.484Z,50.70
2018-07-09T08:17:33.396Z,49.80
2018-07-09T08:22:29.209Z,50.20
2018-07-09T08:24:57.224Z,50.70
2018-07-09T08:29:52.876Z,49.70
2018-07-09T08:32:20.791Z,49.70
2018-07-09T08:34:48.737Z,49.70
2018-07-09T08:37:16.673Z,49.90
2018-07-09T08:39:44.617Z,50.00
2018-07-09T08:42:12.541Z,50.40
2018-07-09T08:44:41.729Z,50.70
2018-07-09T08:47:09.641Z,50.50
2018-07-09T08:49:37.492Z,50.60
2018-07-09T08:54:35.182Z,50.80
2018-07-09T08:57:03.389Z,50.40
2018-07-09T08:59:31.608Z,50.40
2018-07-09T09:01:59.541Z,50.30
2018-07-09T09:04:27.379Z,49.40
2018-07-09T09:09:23.389Z,50.00
2018-07-09T09:11:51.321Z,50.00
2018-07-09T09:14:19.205Z,50.40
2018-07-09T09:16:47.081Z,49.80
2018-07-09T09:19:14.997Z,50.50
2018-07-09T09:21:42.929Z,50.10
2018-07-09T09:24:10.800Z,49.80
2018-07-09T09:26:38.730Z,49.70
2018-07-09T09:29:06.597Z,49.70
2018-07-09T09:31:34.671Z,49.50
2018-07-09T09:34:02.551Z,49.60
2018-07-09T09:36:30.502Z,48.30
2018-07-09T09:38:58.434Z,49.20
2018-07-09T09:41:26.340Z,48.10
2018-07-09T09:43:54.628Z,48.50
2018-07-09T09:46:25.330Z,48.40
2018-07-09T09:48:53.239Z,47.70
2018-07-09T09:51:21.168Z,47.50
2018-07-09T09:53:49.034Z,48.00
2018-07-09T09:56:18.661Z,46.90
2018-07-09T09:58:46.645Z,44.90
2018-07-09T10:01:14.584Z,45.50
2018-07-09T10:03:42.737Z,43.60
2018-07-09T10:06:11.037Z,41.70
2018-07-09T10:08:39.042Z,38.80
2018-07-09T10:11:06.924Z,36.10
2018-07-09T10:13:34.861Z,35.00
2018-07-09T10:16:02.865Z,34.00
2018-07-09T10:18:30.847Z,35.00
2018-07-09T10:20:58.785Z,32.20
2018-07-09T10:23:26.687Z,31.60
2018-07-09T10:25:54.777Z,32.80
2018-07-09T10:28:22.950Z,29.40
2018-07-09T10:30:51.367Z,29.50
2018-07-09T10:33:19.213Z,29.10
2018-07-09T10:35:47.081Z,27.90
2018-07-09T10:38:14.936Z,27.20
2018-07-09T10:40:42.809Z,26.60
2018-07-09T10:43:10.701Z,28.20
2018-07-09T10:45:38.625Z,27.50
2018-07-09T10:50:35.268Z,25.30
2018-07-09T10:53:03.539Z,24.10
2018-07-09T10:55:31.561Z,24.20
2018-07-09T10:57:59.448Z,24.70
2018-07-09T11:00:27.382Z,24.50
2018-07-09T11:02:55.348Z,23.80
2018-07-09T11:05:23.674Z,22.40
2018-07-09T11:07:51.569Z,22.30
2018-07-09T11:10:19.494Z,22.40
2018-07-09T11:12:47.367Z,22.00
2018-07-09T11:15:15.308Z,21.80
2018-07-09T11:17:43.133Z,22.10
2018-07-09T11:20:11.089Z,22.00
2018-07-09T11:22:39.273Z,20.20
2018-07-09T11:25:07.178Z,20.90
2018-07-09T11:27:35.046Z,20.30
2018-07-09T11:30:03.080Z,21.50
2018-07-09T11:32:30.987Z,21.70
2018-07-09T11:34:59.340Z,21.60
2018-07-09T11:37:27.484Z,21.10
2018-07-09T11:39:55.477Z,20.20
2018-07-09T11:42:23.438Z,20.40
2018-07-09T11:44:51.488Z,20.40
2018-07-09T11:47:19.351Z,20.40
2018-07-09T11:49:47.150Z,19.50
2018-07-09T11:52:15.103Z,20.80
2018-07-09T11:54:43.109Z,20.80
2018-07-09T11:57:10.969Z,19.70
2018-07-09T11:59:39.821Z,20.70
2018-07-09T12:02:07.765Z,21.80
2018-07-09T12:04:35.757Z,21.40
2018-07-09T12:07:03.609Z,21.90
2018-07-09T12:09:31.672Z,21.90
2018-07-09T12:11:59.579Z,21.70
2018-07-09T12:14:27.473Z,21.80
2018-07-09T12:16:55.396Z,21.80
2018-07-09T12:19:23.237Z,21.80
2018-07-09T12:21:51.360Z,21.90
2018-07-09T12:24:19.168Z,22.10
2018-07-09T12:26:47.101Z,21.50
2018-07-09T12:29:15.071Z,21.80
2018-07-09T12:31:43.082Z,21.10
2018-07-09T12:34:11.125Z,21.10
2018-07-09T12:39:07.392Z,20.30
2018-07-09T12:41:35.941Z,20.80
2018-07-09T12:44:03.986Z,20.40
2018-07-09T12:46:32.077Z,20.20
2018-07-09T12:49:01.188Z,21.30
2018-07-09T12:51:29.252Z,20.80
2018-07-09T12:53:57.432Z,20.40
2018-07-09T12:56:25.440Z,20.80
2018-07-09T12:58:53.608Z,20.60
2018-07-09T13:01:21.488Z,20.70
2018-07-09T13:03:49.488Z,20.10
2018-07-09T13:06:17.376Z,19.90
2018-07-09T13:08:45.283Z,20.60
2018-07-09T13:11:13.241Z,21.30
2018-07-09T13:13:41.189Z,21.10
2018-07-09T13:16:09.160Z,21.50
2018-07-09T13:18:37.125Z,22.30
2018-07-09T13:21:05.091Z,22.10
2018-07-09T13:26:00.847Z,22.00
2018-07-09T13:28:28.715Z,21.70
2018-07-09T13:30:56.817Z,22.50
2018-07-09T13:33:24.921Z,22.70
2018-07-09T13:35:52.965Z,22.30
2018-07-09T13:38:24.053Z,22.30
2018-07-09T13:40:51.983Z,22.60
2018-07-09T13:43:19.946Z,22.00
2018-07-09T13:45:47.753Z,23.40
2018-07-09T13:48:15.680Z,23.70
2018-07-09T13:50:43.622Z,24.10
2018-07-09T13:53:11.605Z,25.00
2018-07-09T13:55:39.654Z,25.10
2018-07-09T13:58:07.904Z,25.00
2018-07-09T14:00:35.805Z,25.40
2018-07-09T14:03:03.761Z,26.70
2018-07-09T14:05:31.684Z,26.30
2018-07-09T14:07:59.524Z,26.80
2018-07-09T14:10:27.515Z,27.10
2018-07-09T14:12:55.354Z,27.00
2018-07-09T14:15:23.164Z,27.40
2018-07-09T14:17:51.084Z,28.00
2018-07-09T14:20:27.113Z,28.60
2018-07-09T14:22:54.989Z,28.20
2018-07-09T14:25:22.888Z,27.60
2018-07-09T14:27:50.780Z,27.80
2018-07-09T14:30:18.989Z,28.10
2018-07-09T14:32:46.980Z,27.80
2018-07-09T14:37:42.718Z,28.20
2018-07-09T14:40:10.695Z,28.70
2018-07-09T14:42:38.597Z,29.40
2018-07-09T14:45:06.607Z,28.60
2018-07-09T14:47:34.617Z,29.70
2018-07-09T14:50:02.850Z,28.60
2018-07-09T14:52:30.792Z,28.90
2018-07-09T14:54:58.983Z,29.30
2018-07-09T14:57:26.964Z,29.50
2018-07-09T14:59:54.940Z,28.80
2018-07-09T15:02:23.003Z,29.10
2018-07-09T15:18:43.733Z,29.90
2018-07-09T15:21:11.854Z,30.00
2018-07-09T15:23:39.652Z,31.90
2018-07-09T15:26:07.613Z,31.50
2018-07-09T15:28:35.592Z,31.60
2018-07-09T15:31:03.600Z,31.20
2018-07-09T15:33:31.461Z,31.30
2018-07-09T15:35:59.397Z,32.10
2018-07-09T15:38:27.318Z,31.80
2018-07-09T15:40:55.212Z,32.60
2018-07-09T15:43:40.441Z,32.40
2018-07-09T15:46:08.400Z,33.00
2018-07-09T15:48:36.241Z,32.50
2018-07-09T15:51:04.241Z,33.00
2018-07-09T15:53:32.145Z,32.50
2018-07-09T15:56:00.009Z,32.40
2018-07-09T15:58:27.884Z,32.90
2018-07-09T16:00:55.813Z,32.60
2018-07-09T16:03:23.721Z,32.40
2018-07-09T16:05:51.777Z,32.80
2018-07-09T16:08:19.601Z,33.30
2018-07-09T16:10:47.441Z,33.50
2018-07-09T16:13:15.375Z,33.60
2018-07-09T16:15:43.328Z,33.60
2018-07-09T16:18:11.230Z,34.30
2018-07-09T16:20:39.133Z,34.60
2018-07-09T16:23:06.976Z,34.90
2018-07-09T16:25:34.881Z,35.20
2018-07-09T16:28:02.825Z,35.70
2018-07-09T16:30:30.666Z,35.70
2018-07-09T16:32:58.521Z,36.10
2018-07-09T16:35:26.567Z,36.00
2018-07-09T16:37:54.481Z,36.00
2018-07-09T16:40:22.399Z,36.30
2018-07-09T16:42:50.387Z,36.20
2018-07-09T16:45:18.285Z,36.20
2018-07-09T16:47:46.925Z,36.20
2018-07-09T16:50:15.829Z,36.40
2018-07-09T16:52:43.684Z,36.50
2018-07-09T16:55:11.482Z,37.30
2018-07-09T16:57:39.371Z,36.70
2018-07-09T17:00:07.441Z,37.30
2018-07-09T17:02:35.337Z,38.10
2018-07-09T17:05:03.269Z,38.10
2018-07-09T17:07:31.236Z,38.20
2018-07-09T17:09:59.132Z,38.20
2018-07-09T17:12:27.037Z,39.00
2018-07-09T17:14:55.009Z,38.90
2018-07-09T17:17:22.891Z,40.40
2018-07-09T17:19:50.837Z,40.20
2018-07-09T17:22:18.801Z,39.70
2018-07-09T17:24:46.784Z,39.90
2018-07-09T17:27:14.768Z,40.50
2018-07-09T17:29:42.605Z,41.60
2018-07-09T17:32:10.469Z,42.10
2018-07-09T17:34:38.341Z,42.70
2018-07-09T17:37:06.213Z,42.90
2018-07-09T17:39:34.017Z,43.50
2018-07-09T17:42:01.982Z,44.10
2018-07-09T17:44:29.833Z,44.40
2018-07-09T17:46:57.746Z,44.30
2018-07-09T17:49:25.745Z,44.70
2018-07-09T17:51:53.634Z,44.00
2018-07-09T17:54:21.515Z,44.40
2018-07-09T17:56:49.436Z,44.10
2018-07-09T17:59:17.266Z,44.60
2018-07-09T18:01:45.234Z,45.00
2018-07-09T18:04:13.187Z,45.70
2018-07-09T18:09:08.962Z,45.50
2018-07-09T18:11:36.928Z,45.40
2018-07-09T18:14:04.920Z,45.30
2018-07-09T18:16:32.825Z,45.50
2018-07-09T18:19:00.900Z,45.20
2018-07-09T18:21:28.877Z,45.40
2018-07-09T18:23:56.648Z,45.60
2018-07-09T18:26:24.549Z,46.00
2018-07-09T18:28:52.612Z,45.90
2018-07-09T18:31:20.541Z,46.20
2018-07-09T18:33:48.609Z,46.40
2018-07-09T18:36:16.553Z,46.50
2018-07-09T18:38:44.594Z,46.90
2018-07-09T18:41:12.345Z,47.00
2018-07-09T18:43:41.537Z,46.70
2018-07-09T18:46:09.665Z,47.10
2018-07-09T18:48:37.733Z,47.40
2018-07-09T18:51:05.696Z,47.00
2018-07-09T18:53:33.528Z,47.50
2018-07-09T18:56:01.540Z,47.20
2018-07-09T18:58:29.551Z,47.60
2018-07-09T19:00:57.420Z,48.20
2018-07-09T19:03:24.767Z,48.50
2018-07-09T19:07:09.497Z,48.00
2018-07-09T19:09:38.204Z,48.40
2018-07-09T19:12:07.529Z,48.70
2018-07-09T19:14:42.236Z,48.80
2018-07-09T19:18:26.278Z,48.80
2018-07-09T19:21:37.983Z,48.70
2018-07-09T19:24:05.762Z,49.50
2018-07-09T19:26:32.167Z,50.00
2018-07-09T19:28:58.578Z,50.10
2018-07-09T19:31:24.976Z,50.90
2018-07-09T19:33:51.665Z,50.90
2018-07-09T19:36:18.112Z,50.80
2018-07-09T19:38:44.557Z,50.70
2018-07-09T19:41:10.993Z,50.70
2018-07-09T19:43:37.799Z,51.20
2018-07-09T19:46:04.501Z,51.20
2018-07-09T19:48:32.971Z,51.10
2018-07-09T19:50:59.489Z,51.40
2018-07-09T19:53:25.861Z,50.60
2018-07-09T19:55:52.273Z,51.60
2018-07-09T19:58:19.090Z,50.80
2018-07-09T20:00:45.638Z,51.50
2018-07-09T20:03:12.000Z,51.00
2018-07-09T20:05:38.465Z,51.70
2018-07-09T20:08:05.700Z,51.00
2018-07-09T20:10:37.855Z,50.90
2018-07-09T20:13:10.032Z,50.90
2018-07-09T20:15:42.231Z,52.60
2018-07-09T20:18:08.688Z,52.50
2018-07-09T20:20:35.081Z,52.20
2018-07-09T20:23:01.503Z,52.40
2018-07-09T20:25:27.861Z,53.30
2018-07-09T20:27:54.324Z,52.70
2018-07-09T20:30:20.741Z,52.40
2018-07-09T20:32:47.237Z,53.50
2018-07-09T20:37:40.767Z,52.70
2018-07-09T20:40:07.292Z,52.30
2018-07-09T20:42:33.680Z,54.40
2018-07-09T20:45:00.099Z,53.10
2018-07-09T20:47:26.520Z,53.60
2018-07-09T20:49:52.960Z,54.10
2018-07-09T20:52:19.407Z,53.20
2018-07-09T20:54:45.994Z,54.70
2018-07-09T20:57:12.782Z,55.10
2018-07-09T20:59:39.154Z,54.30
2018-07-09T21:02:05.561Z,55.30
2018-07-09T21:04:32.289Z,54.90
2018-07-09T21:09:27.693Z,54.00
2018-07-09T21:11:56.316Z,54.70
2018-07-09T21:14:22.760Z,55.50
2018-07-09T21:16:49.249Z,54.90
2018-07-09T21:19:15.613Z,55.30
2018-07-09T21:24:09.096Z,54.70
2018-07-09T21:26:35.720Z,55.50
2018-07-09T21:29:02.109Z,54.50
2018-07-09T21:31:28.510Z,53.70
2018-07-09T21:33:54.942Z,54.70
2018-07-09T21:36:21.433Z,55.90
2018-07-09T21:38:47.906Z,55.60
2018-07-09T21:41:14.370Z,55.00
2018-07-09T21:43:40.774Z,54.70
2018-07-09T21:46:07.197Z,55.80
2018-07-09T21:48:34.025Z,53.70
2018-07-09T21:51:00.390Z,56.20
2018-07-09T21:53:27.540Z,54.50
2018-07-09T21:55:54.293Z,54.60
2018-07-09T21:58:21.166Z,55.60
2018-07-09T22:00:47.585Z,55.10
2018-07-09T22:03:13.993Z,55.30
2018-07-09T22:05:40.409Z,55.10
2018-07-09T22:08:06.825Z,54.90
2018-07-09T22:10:33.220Z,54.70
2018-07-09T22:12:59.616Z,55.60
2018-07-09T22:15:26.050Z,55.60
2018-07-09T22:17:52.404Z,54.90
2018-07-09T22:22:45.708Z,55.60
2018-07-09T22:25:12.097Z,55.70
2018-07-09T22:27:38.485Z,55.50
2018-07-09T22:30:04.941Z,55.40
2018-07-09T22:32:32.907Z,56.30
2018-07-09T22:35:00.794Z,57.20
2018-07-09T22:37:28.645Z,56.40
2018-07-09T22:39:56.525Z,56.70
2018-07-09T22:42:24.404Z,56.40
2018-07-09T22:44:52.360Z,56.90
2018-07-09T22:47:20.280Z,56.40
2018-07-09T22:49:48.112Z,56.50
2018-07-09T22:52:16.080Z,56.20
2018-07-09T22:54:43.924Z,55.70
2018-07-09T22:57:11.831Z,56.70
2018-07-09T22:59:39.729Z,56.50
2018-07-09T23:02:07.601Z,57.40
2018-07-09T23:04:35.426Z,55.90
2018-07-09T23:07:03.338Z,57.30
2018-07-09T23:13:16.298Z,57.30
2018-07-09T23:17:04.906Z,57.80
2018-07-09T23:21:06.787Z,58.10
2018-07-09T23:23:33.179Z,58.90
2018-07-09T23:25:59.525Z,59.70
2018-07-09T23:28:25.933Z,58.30
2018-07-09T23:30:52.325Z,58.40
2018-07-09T23:33:18.685Z,59.80
2018-07-09T23:35:45.102Z,60.50
2018-07-09T23:38:11.503Z,61.30
2018-07-09T23:40:37.918Z,61.30
2018-07-09T23:43:04.353Z,61.20
2018-07-09T23:45:30.803Z,59.10
2018-07-09T23:47:57.177Z,59.20
2018-07-09T23:50:23.624Z,61.70
2018-07-09T23:52:50.028Z,61.10
2018-07-09T23:55:16.442Z,62.30
2018-07-09T23:58:16.199Z,61.70
